sensor_id;sensor_type;location;lat;lon;timestamp;pressure;altitude;pressure_sealevel;temperature
81177;BMP280;74095;48.270;14.200;2024-02-26T00:00:00;96507.06;;;4.66
81177;BMP280;74095;48.270;14.200;2024-02-26T00:02:26;96491.16;;;4.53
81177;BMP280;74095;48.270;14.200;2024-02-26T00:04:52;96512.75;;;4.55
81177;BMP280;74095;48.270;14.200;2024-02-26T00:07:18;96501.84;;;4.43
81177;BMP280;74095;48.270;14.200;2024-02-26T00:09:43;96505.63;;;4.55
81177;BMP280;74095;48.270;14.200;2024-02-26T00:12:09;96508.41;;;4.64
81177;BMP280;74095;48.270;14.200;2024-02-26T00:14:35;96506.34;;;4.61
81177;BMP280;74095;48.270;14.200;2024-02-26T00:17:01;96507.63;;;4.63
81177;BMP280;74095;48.270;14.200;2024-02-26T00:19:28;96489.44;;;4.62
81177;BMP280;74095;48.270;14.200;2024-02-26T00:21:54;96501.41;;;4.73
81177;BMP280;74095;48.270;14.200;2024-02-26T00:24:21;96478.94;;;4.57
81177;BMP280;74095;48.270;14.200;2024-02-26T00:26:47;96481.56;;;4.57
81177;BMP280;74095;48.270;14.200;2024-02-26T00:29:19;96488.31;;;4.49
81177;BMP280;74095;48.270;14.200;2024-02-26T00:31:45;96486.00;;;4.43
81177;BMP280;74095;48.270;14.200;2024-02-26T00:34:11;96485.97;;;4.29
81177;BMP280;74095;48.270;14.200;2024-02-26T00:36:37;96487.88;;;4.23
81177;BMP280;74095;48.270;14.200;2024-02-26T00:39:06;96479.78;;;4.15
81177;BMP280;74095;48.270;14.200;2024-02-26T00:41:32;96488.69;;;4.19
81177;BMP280;74095;48.270;14.200;2024-02-26T00:43:58;96486.38;;;4.17
81177;BMP280;74095;48.270;14.200;2024-02-26T00:46:23;96482.50;;;4.10
81177;BMP280;74095;48.270;14.200;2024-02-26T00:48:49;96473.66;;;4.01
81177;BMP280;74095;48.270;14.200;2024-02-26T00:51:15;96475.44;;;4.05
81177;BMP280;74095;48.270;14.200;2024-02-26T00:53:41;96465.91;;;3.90
81177;BMP280;74095;48.270;14.200;2024-02-26T00:56:07;96463.72;;;3.74
81177;BMP280;74095;48.270;14.200;2024-02-26T00:58:33;96457.59;;;3.55
81177;BMP280;74095;48.270;14.200;2024-02-26T01:00:59;96457.22;;;3.42
81177;BMP280;74095;48.270;14.200;2024-02-26T01:03:25;96458.31;;;3.41
81177;BMP280;74095;48.270;14.200;2024-02-26T01:05:51;96451.50;;;3.35
81177;BMP280;74095;48.270;14.200;2024-02-26T01:08:17;96458.88;;;3.33
81177;BMP280;74095;48.270;14.200;2024-02-26T01:10:43;96447.88;;;3.26
81177;BMP280;74095;48.270;14.200;2024-02-26T01:13:09;96446.28;;;3.30
81177;BMP280;74095;48.270;14.200;2024-02-26T01:15:35;96447.34;;;3.29
81177;BMP280;74095;48.270;14.200;2024-02-26T01:18:00;96441.03;;;3.25
81177;BMP280;74095;48.270;14.200;2024-02-26T01:20:26;96445.31;;;3.21
81177;BMP280;74095;48.270;14.200;2024-02-26T01:22:52;96435.34;;;3.18
81177;BMP280;74095;48.270;14.200;2024-02-26T01:25:18;96434.31;;;3.14
81177;BMP280;74095;48.270;14.200;2024-02-26T01:27:44;96429.66;;;3.06
81177;BMP280;74095;48.270;14.200;2024-02-26T01:30:10;96431.28;;;3.02
81177;BMP280;74095;48.270;14.200;2024-02-26T01:32:36;96422.06;;;2.99
81177;BMP280;74095;48.270;14.200;2024-02-26T01:35:03;96419.94;;;3.01
81177;BMP280;74095;48.270;14.200;2024-02-26T01:37:29;96411.09;;;2.92
81177;BMP280;74095;48.270;14.200;2024-02-26T01:39:58;96416.69;;;2.86
81177;BMP280;74095;48.270;14.200;2024-02-26T01:42:24;96416.34;;;2.92
81177;BMP280;74095;48.270;14.200;2024-02-26T01:44:49;96429.09;;;3.09
81177;BMP280;74095;48.270;14.200;2024-02-26T01:47:15;96418.50;;;3.14
81177;BMP280;74095;48.270;14.200;2024-02-26T01:49:41;96424.91;;;3.32
81177;BMP280;74095;48.270;14.200;2024-02-26T01:52:08;96426.66;;;3.41
81177;BMP280;74095;48.270;14.200;2024-02-26T01:54:35;96431.50;;;3.53
81177;BMP280;74095;48.270;14.200;2024-02-26T01:57:03;96422.84;;;3.53
81177;BMP280;74095;48.270;14.200;2024-02-26T01:59:30;96415.69;;;3.53
81177;BMP280;74095;48.270;14.200;2024-02-26T02:01:59;96414.13;;;3.52
81177;BMP280;74095;48.270;14.200;2024-02-26T02:04:27;96408.97;;;3.42
81177;BMP280;74095;48.270;14.200;2024-02-26T02:06:53;96418.25;;;3.39
81177;BMP280;74095;48.270;14.200;2024-02-26T02:09:20;96404.13;;;3.30
81177;BMP280;74095;48.270;14.200;2024-02-26T02:11:46;96412.50;;;3.32
81177;BMP280;74095;48.270;14.200;2024-02-26T02:14:14;96408.22;;;3.18
81177;BMP280;74095;48.270;14.200;2024-02-26T02:16:40;96394.72;;;2.95
81177;BMP280;74095;48.270;14.200;2024-02-26T02:19:06;96415.44;;;2.78
81177;BMP280;74095;48.270;14.200;2024-02-26T02:21:32;96412.16;;;2.63
81177;BMP280;74095;48.270;14.200;2024-02-26T02:23:58;96421.44;;;2.50
81177;BMP280;74095;48.270;14.200;2024-02-26T02:26:24;96417.09;;;2.35
81177;BMP280;74095;48.270;14.200;2024-02-26T02:28:50;96417.91;;;2.31
81177;BMP280;74095;48.270;14.200;2024-02-26T02:31:16;96420.84;;;2.24
81177;BMP280;74095;48.270;14.200;2024-02-26T02:33:43;96416.38;;;2.25
81177;BMP280;74095;48.270;14.200;2024-02-26T02:36:09;96407.78;;;2.14
81177;BMP280;74095;48.270;14.200;2024-02-26T02:38:48;96422.72;;;2.19
81177;BMP280;74095;48.270;14.200;2024-02-26T02:41:15;96409.94;;;2.02
81177;BMP280;74095;48.270;14.200;2024-02-26T02:43:41;96414.63;;;2.05
81177;BMP280;74095;48.270;14.200;2024-02-26T02:46:07;96411.56;;;1.88
81177;BMP280;74095;48.270;14.200;2024-02-26T02:48:33;96427.91;;;1.85
81177;BMP280;74095;48.270;14.200;2024-02-26T02:50:59;96423.22;;;1.82
81177;BMP280;74095;48.270;14.200;2024-02-26T02:53:25;96420.59;;;1.82
81177;BMP280;74095;48.270;14.200;2024-02-26T02:55:51;96429.97;;;1.93
81177;BMP280;74095;48.270;14.200;2024-02-26T02:58:16;96421.31;;;1.87
81177;BMP280;74095;48.270;14.200;2024-02-26T03:00:42;96425.00;;;1.86
81177;BMP280;74095;48.270;14.200;2024-02-26T03:03:08;96429.97;;;1.93
81177;BMP280;74095;48.270;14.200;2024-02-26T03:05:34;96412.16;;;1.80
81177;BMP280;74095;48.270;14.200;2024-02-26T03:08:00;96417.94;;;1.82
81177;BMP280;74095;48.270;14.200;2024-02-26T03:10:26;96408.50;;;1.76
81177;BMP280;74095;48.270;14.200;2024-02-26T03:12:53;96415.06;;;1.73
81177;BMP280;74095;48.270;14.200;2024-02-26T03:15:20;96413.56;;;1.52
81177;BMP280;74095;48.270;14.200;2024-02-26T03:17:45;96392.41;;;1.18
81177;BMP280;74095;48.270;14.200;2024-02-26T03:20:11;96415.22;;;1.27
81177;BMP280;74095;48.270;14.200;2024-02-26T03:22:39;96415.97;;;1.38
81177;BMP280;74095;48.270;14.200;2024-02-26T03:25:06;96417.53;;;1.54
81177;BMP280;74095;48.270;14.200;2024-02-26T03:27:32;96402.78;;;1.58
81177;BMP280;74095;48.270;14.200;2024-02-26T03:29:58;96408.53;;;1.70
81177;BMP280;74095;48.270;14.200;2024-02-26T03:32:24;96409.00;;;1.78
81177;BMP280;74095;48.270;14.200;2024-02-26T03:34:50;96410.81;;;1.87
81177;BMP280;74095;48.270;14.200;2024-02-26T03:37:19;96403.22;;;1.86
81177;BMP280;74095;48.270;14.200;2024-02-26T03:39:45;96390.53;;;1.88
81177;BMP280;74095;48.270;14.200;2024-02-26T03:42:11;96401.81;;;1.98
81177;BMP280;74095;48.270;14.200;2024-02-26T03:44:37;96407.06;;;1.98
81177;BMP280;74095;48.270;14.200;2024-02-26T03:47:03;96397.34;;;1.89
81177;BMP280;74095;48.270;14.200;2024-02-26T03:49:29;96401.41;;;1.76
81177;BMP280;74095;48.270;14.200;2024-02-26T03:51:55;96400.66;;;1.60
81177;BMP280;74095;48.270;14.200;2024-02-26T03:54:22;96412.72;;;1.71
81177;BMP280;74095;48.270;14.200;2024-02-26T03:56:48;96405.59;;;1.77
81177;BMP280;74095;48.270;14.200;2024-02-26T03:59:14;96411.63;;;1.78
81177;BMP280;74095;48.270;14.200;2024-02-26T04:01:45;96414.78;;;1.80
81177;BMP280;74095;48.270;14.200;2024-02-26T04:04:12;96414.78;;;1.80
81177;BMP280;74095;48.270;14.200;2024-02-26T04:06:38;96417.16;;;1.81
81177;BMP280;74095;48.270;14.200;2024-02-26T04:09:04;96412.69;;;1.82
81177;BMP280;74095;48.270;14.200;2024-02-26T04:11:30;96413.19;;;1.84
81177;BMP280;74095;48.270;14.200;2024-02-26T04:13:56;96408.22;;;1.77
81177;BMP280;74095;48.270;14.200;2024-02-26T04:16:22;96408.22;;;1.77
81177;BMP280;74095;48.270;14.200;2024-02-26T04:18:48;96418.22;;;1.80
81177;BMP280;74095;48.270;14.200;2024-02-26T04:21:14;96411.16;;;1.70
81177;BMP280;74095;48.270;14.200;2024-02-26T04:23:40;96409.56;;;1.75
81177;BMP280;74095;48.270;14.200;2024-02-26T04:26:06;96413.78;;;1.76
81177;BMP280;74095;48.270;14.200;2024-02-26T04:28:32;96411.13;;;1.81
81177;BMP280;74095;48.270;14.200;2024-02-26T04:30:58;96416.38;;;1.81
81177;BMP280;74095;48.270;14.200;2024-02-26T04:33:24;96413.81;;;1.60
81177;BMP280;74095;48.270;14.200;2024-02-26T04:35:50;96419.34;;;1.59
81177;BMP280;74095;48.270;14.200;2024-02-26T04:38:16;96410.94;;;1.57
81177;BMP280;74095;48.270;14.200;2024-02-26T04:40:41;96411.25;;;1.40
81177;BMP280;74095;48.270;14.200;2024-02-26T04:43:07;96415.97;;;1.43
81177;BMP280;74095;48.270;14.200;2024-02-26T04:45:33;96423.03;;;1.53
81177;BMP280;74095;48.270;14.200;2024-02-26T04:47:59;96412.53;;;1.53
81177;BMP280;74095;48.270;14.200;2024-02-26T04:50:25;96413.84;;;1.50
81177;BMP280;74095;48.270;14.200;2024-02-26T04:52:51;96411.78;;;1.37
81177;BMP280;74095;48.270;14.200;2024-02-26T04:55:17;96429.16;;;1.23
81177;BMP280;74095;48.270;14.200;2024-02-26T04:57:43;96433.91;;;1.01
81177;BMP280;74095;48.270;14.200;2024-02-26T05:00:09;96407.94;;;0.69
81177;BMP280;74095;48.270;14.200;2024-02-26T05:02:35;96426.56;;;0.72
81177;BMP280;74095;48.270;14.200;2024-02-26T05:05:05;96425.78;;;0.72
81177;BMP280;74095;48.270;14.200;2024-02-26T05:07:31;96428.16;;;0.63
81177;BMP280;74095;48.270;14.200;2024-02-26T05:09:57;96434.97;;;0.54
81177;BMP280;74095;48.270;14.200;2024-02-26T05:12:24;96441.81;;;0.60
81177;BMP280;74095;48.270;14.200;2024-02-26T05:14:49;96434.19;;;0.79
81177;BMP280;74095;48.270;14.200;2024-02-26T05:17:15;96426.06;;;0.91
81177;BMP280;74095;48.270;14.200;2024-02-26T05:19:41;96433.41;;;1.04
81177;BMP280;74095;48.270;14.200;2024-02-26T05:22:07;96433.41;;;1.14
81177;BMP280;74095;48.270;14.200;2024-02-26T05:24:33;96436.03;;;1.04
81177;BMP280;74095;48.270;14.200;2024-02-26T05:26:59;96447.03;;;1.11
81177;BMP280;74095;48.270;14.200;2024-02-26T05:29:25;96445.19;;;1.16
81177;BMP280;74095;48.270;14.200;2024-02-26T05:31:51;96445.19;;;1.11
81177;BMP280;74095;48.270;14.200;2024-02-26T05:34:19;96443.34;;;1.17
81177;BMP280;74095;48.270;14.200;2024-02-26T05:36:45;96450.72;;;1.15
81177;BMP280;74095;48.270;14.200;2024-02-26T05:39:11;96457.56;;;1.06
81177;BMP280;74095;48.270;14.200;2024-02-26T05:41:37;96448.38;;;1.03
81177;BMP280;74095;48.270;14.200;2024-02-26T05:44:03;96437.88;;;1.03
81177;BMP280;74095;48.270;14.200;2024-02-26T05:46:29;96443.38;;;1.07
81177;BMP280;74095;48.270;14.200;2024-02-26T05:48:55;96448.63;;;1.07
81177;BMP280;74095;48.270;14.200;2024-02-26T05:51:21;96447.03;;;1.16
81177;BMP280;74095;48.270;14.200;2024-02-26T05:53:47;96443.34;;;1.22
81177;BMP280;74095;48.270;14.200;2024-02-26T05:56:22;96454.66;;;1.17
81177;BMP280;74095;48.270;14.200;2024-02-26T05:58:48;96434.97;;;1.10
81177;BMP280;74095;48.270;14.200;2024-02-26T06:01:17;96437.84;;;1.23
81177;BMP280;74095;48.270;14.200;2024-02-26T06:03:44;96432.84;;;1.27
81177;BMP280;74095;48.270;14.200;2024-02-26T06:06:10;96450.44;;;1.16
81177;BMP280;74095;48.270;14.200;2024-02-26T06:08:36;96454.69;;;0.92
81177;BMP280;74095;48.270;14.200;2024-02-26T06:11:09;96454.41;;;0.83
81177;BMP280;74095;48.270;14.200;2024-02-26T06:13:35;96463.84;;;0.90
81177;BMP280;74095;48.270;14.200;2024-02-26T06:16:01;96465.19;;;0.92
81177;BMP280;74095;48.270;14.200;2024-02-26T06:18:28;96470.69;;;0.80
81177;BMP280;74095;48.270;14.200;2024-02-26T06:20:53;96466.47;;;0.64
81177;BMP280;74095;48.270;14.200;2024-02-26T06:23:19;96472.75;;;0.58
81177;BMP280;74095;48.270;14.200;2024-02-26T06:25:45;96472.25;;;0.71
81177;BMP280;74095;48.270;14.200;2024-02-26T06:28:13;96467.03;;;0.81
81177;BMP280;74095;48.270;14.200;2024-02-26T06:30:39;96467.81;;;0.92
81177;BMP280;74095;48.270;14.200;2024-02-26T06:33:05;96483.31;;;0.99
81177;BMP280;74095;48.270;14.200;2024-02-26T06:35:31;96493.81;;;0.99
81177;BMP280;74095;48.270;14.200;2024-02-26T06:37:57;96485.66;;;0.90
81177;BMP280;74095;48.270;14.200;2024-02-26T06:40:23;96487.22;;;0.91
81177;BMP280;74095;48.270;14.200;2024-02-26T06:42:49;96497.97;;;1.05
81177;BMP280;74095;48.270;14.200;2024-02-26T06:45:16;96493.81;;;1.04
81177;BMP280;74095;48.270;14.200;2024-02-26T06:47:41;96490.09;;;1.00
81177;BMP280;74095;48.270;14.200;2024-02-26T06:50:09;96509.56;;;1.14
81177;BMP280;74095;48.270;14.200;2024-02-26T06:52:34;96510.34;;;1.09
81177;BMP280;74095;48.270;14.200;2024-02-26T06:55:00;96514.28;;;1.12
81177;BMP280;74095;48.270;14.200;2024-02-26T06:57:26;96508.50;;;1.15
81177;BMP280;74095;48.270;14.200;2024-02-26T06:59:52;96502.72;;;1.28
81177;BMP280;74095;48.270;14.200;2024-02-26T07:02:18;96513.69;;;1.50
81177;BMP280;74095;48.270;14.200;2024-02-26T07:04:44;96511.59;;;1.52
81177;BMP280;74095;48.270;14.200;2024-02-26T07:07:10;96511.59;;;1.57
81177;BMP280;74095;48.270;14.200;2024-02-26T07:09:36;96512.59;;;1.71
81177;BMP280;74095;48.270;14.200;2024-02-26T07:12:02;96507.00;;;1.88
81177;BMP280;74095;48.270;14.200;2024-02-26T07:14:28;96515.63;;;2.14
81177;BMP280;74095;48.270;14.200;2024-02-26T07:16:54;96510.56;;;2.28
81177;BMP280;74095;48.270;14.200;2024-02-26T07:19:20;96505.00;;;2.29
81177;BMP280;74095;48.270;14.200;2024-02-26T07:21:46;96501.31;;;2.30
81177;BMP280;74095;48.270;14.200;2024-02-26T07:24:12;96501.59;;;2.68
81177;BMP280;74095;48.270;14.200;2024-02-26T07:26:38;96511.38;;;3.01
81177;BMP280;74095;48.270;14.200;2024-02-26T07:29:03;96501.25;;;3.13
81177;BMP280;74095;48.270;14.200;2024-02-26T07:31:30;96498.25;;;3.25
81177;BMP280;74095;48.270;14.200;2024-02-26T07:33:56;96505.28;;;3.34
81177;BMP280;74095;48.270;14.200;2024-02-26T07:36:22;96510.66;;;3.48
81177;BMP280;74095;48.270;14.200;2024-02-26T07:38:47;96503.44;;;3.59
81177;BMP280;74095;48.270;14.200;2024-02-26T07:41:13;96498.91;;;3.64
81177;BMP280;74095;48.270;14.200;2024-02-26T07:43:39;96498.00;;;3.74
81177;BMP280;74095;48.270;14.200;2024-02-26T07:46:06;96509.50;;;3.83
81177;BMP280;74095;48.270;14.200;2024-02-26T07:48:32;96511.63;;;3.81
81177;BMP280;74095;48.270;14.200;2024-02-26T07:50:59;96518.94;;;3.65
81177;BMP280;74095;48.270;14.200;2024-02-26T07:53:26;96525.09;;;3.56
81177;BMP280;74095;48.270;14.200;2024-02-26T07:55:51;96519.28;;;3.54
81177;BMP280;74095;48.270;14.200;2024-02-26T07:58:17;96514.19;;;3.38
81177;BMP280;74095;48.270;14.200;2024-02-26T08:00:43;96512.00;;;3.22
81177;BMP280;74095;48.270;14.200;2024-02-26T08:03:11;96528.00;;;3.25
81177;BMP280;74095;48.270;14.200;2024-02-26T08:05:38;96535.06;;;3.01
81177;BMP280;74095;48.270;14.200;2024-02-26T08:08:06;96538.03;;;2.55
81177;BMP280;74095;48.270;14.200;2024-02-26T08:10:32;96514.66;;;2.44
81177;BMP280;74095;48.270;14.200;2024-02-26T08:12:58;96536.56;;;2.78
81177;BMP280;74095;48.270;14.200;2024-02-26T08:15:33;96542.69;;;3.08
81177;BMP280;74095;48.270;14.200;2024-02-26T08:18:00;96532.75;;;3.28
81177;BMP280;74095;48.270;14.200;2024-02-26T08:20:30;96539.59;;;3.53
81177;BMP280;74095;48.270;14.200;2024-02-26T08:22:56;96537.84;;;3.96
81177;BMP280;74095;48.270;14.200;2024-02-26T08:25:23;96528.41;;;4.32
81177;BMP280;74095;48.270;14.200;2024-02-26T08:27:49;96534.59;;;4.60
81177;BMP280;74095;48.270;14.200;2024-02-26T08:30:16;96542.38;;;4.89
81177;BMP280;74095;48.270;14.200;2024-02-26T08:32:47;96537.63;;;5.51
81177;BMP280;74095;48.270;14.200;2024-02-26T08:35:13;96535.44;;;6.07
81177;BMP280;74095;48.270;14.200;2024-02-26T08:37:39;96527.69;;;6.47
81177;BMP280;74095;48.270;14.200;2024-02-26T08:40:06;96543.03;;;6.72
81177;BMP280;74095;48.270;14.200;2024-02-26T08:42:32;96534.38;;;6.80
81177;BMP280;74095;48.270;14.200;2024-02-26T08:44:58;96534.97;;;6.99
81177;BMP280;74095;48.270;14.200;2024-02-26T08:47:27;96542.94;;;7.39
81177;BMP280;74095;48.270;14.200;2024-02-26T08:49:53;96525.00;;;7.75
81177;BMP280;74095;48.270;14.200;2024-02-26T08:52:19;96531.78;;;8.07
81177;BMP280;74095;48.270;14.200;2024-02-26T08:54:45;96542.69;;;7.97
81177;BMP280;74095;48.270;14.200;2024-02-26T08:57:11;96535.91;;;7.82
81177;BMP280;74095;48.270;14.200;2024-02-26T08:59:37;96542.63;;;7.71
81177;BMP280;74095;48.270;14.200;2024-02-26T09:02:03;96537.91;;;7.59
81177;BMP280;74095;48.270;14.200;2024-02-26T09:04:29;96537.41;;;7.66
81177;BMP280;74095;48.270;14.200;2024-02-26T09:06:55;96541.22;;;7.82
81177;BMP280;74095;48.270;14.200;2024-02-26T09:09:21;96539.09;;;8.01
81177;BMP280;74095;48.270;14.200;2024-02-26T09:11:48;96543.38;;;8.28
81177;BMP280;74095;48.270;14.200;2024-02-26T09:14:17;96546.78;;;8.20
81177;BMP280;74095;48.270;14.200;2024-02-26T09:16:43;96552.41;;;8.18
81177;BMP280;74095;48.270;14.200;2024-02-26T09:19:09;96549.88;;;7.96
81177;BMP280;74095;48.270;14.200;2024-02-26T09:21:35;96552.66;;;8.00
81177;BMP280;74095;48.270;14.200;2024-02-26T09:24:01;96556.94;;;8.27
81177;BMP280;74095;48.270;14.200;2024-02-26T09:26:27;96547.25;;;8.22
81177;BMP280;74095;48.270;14.200;2024-02-26T09:28:53;96561.19;;;8.45
81177;BMP280;74095;48.270;14.200;2024-02-26T09:31:18;96549.16;;;8.39
81177;BMP280;74095;48.270;14.200;2024-02-26T09:33:44;96552.09;;;8.71
81177;BMP280;74095;48.270;14.200;2024-02-26T09:36:11;96550.72;;;8.74
81177;BMP280;74095;48.270;14.200;2024-02-26T09:38:37;96557.59;;;8.75
81177;BMP280;74095;48.270;14.200;2024-02-26T09:41:06;96551.78;;;8.73
81177;BMP280;74095;48.270;14.200;2024-02-26T09:43:38;96543.16;;;8.93
81177;BMP280;74095;48.270;14.200;2024-02-26T09:46:08;96555.25;;;8.74
81177;BMP280;74095;48.270;14.200;2024-02-26T09:48:34;96552.13;;;8.63
81177;BMP280;74095;48.270;14.200;2024-02-26T09:51:02;96538.81;;;8.54
81177;BMP280;74095;48.270;14.200;2024-02-26T09:53:29;96544.44;;;8.96
81177;BMP280;74095;48.270;14.200;2024-02-26T09:55:59;96554.84;;;9.18
81177;BMP280;74095;48.270;14.200;2024-02-26T09:58:28;96557.28;;;9.40
81177;BMP280;74095;48.270;14.200;2024-02-26T10:00:56;96560.59;;;9.66
81177;BMP280;74095;48.270;14.200;2024-02-26T10:03:41;96563.78;;;9.89
81177;BMP280;74095;48.270;14.200;2024-02-26T10:06:08;96557.81;;;9.92
81177;BMP280;74095;48.270;14.200;2024-02-26T10:08:35;96560.16;;;9.94
81177;BMP280;74095;48.270;14.200;2024-02-26T10:11:07;96563.13;;;9.92
81177;BMP280;74095;48.270;14.200;2024-02-26T10:13:36;96566.34;;;9.77
81177;BMP280;74095;48.270;14.200;2024-02-26T10:16:03;96561.47;;;9.50
81177;BMP280;74095;48.270;14.200;2024-02-26T10:18:48;96560.28;;;9.30
81177;BMP280;74095;48.270;14.200;2024-02-26T10:21:16;96556.63;;;8.97
81177;BMP280;74095;48.270;14.200;2024-02-26T10:23:46;96553.59;;;9.15
81177;BMP280;74095;48.270;14.200;2024-02-26T10:26:19;96548.75;;;9.09
81177;BMP280;74095;48.270;14.200;2024-02-26T10:28:45;96548.25;;;9.24
81177;BMP280;74095;48.270;14.200;2024-02-26T10:31:13;96541.22;;;9.19
81177;BMP280;74095;48.270;14.200;2024-02-26T10:33:40;96553.41;;;9.20
81177;BMP280;74095;48.270;14.200;2024-02-26T10:36:07;96552.31;;;9.21
81177;BMP280;74095;48.270;14.200;2024-02-26T10:38:37;96551.09;;;9.19
81177;BMP280;74095;48.270;14.200;2024-02-26T10:41:06;96545.84;;;9.40
81177;BMP280;74095;48.270;14.200;2024-02-26T10:43:32;96543.88;;;9.19
81177;BMP280;74095;48.270;14.200;2024-02-26T10:45:58;96538.06;;;9.35
81177;BMP280;74095;48.270;14.200;2024-02-26T10:48:24;96529.28;;;9.34
81177;BMP280;74095;48.270;14.200;2024-02-26T10:50:50;96527.44;;;9.17
81177;BMP280;74095;48.270;14.200;2024-02-26T10:53:17;96544.19;;;9.18
81177;BMP280;74095;48.270;14.200;2024-02-26T10:55:48;96539.31;;;9.29
81177;BMP280;74095;48.270;14.200;2024-02-26T10:58:16;96526.25;;;8.89
81177;BMP280;74095;48.270;14.200;2024-02-26T11:00:42;96533.16;;;8.90
81177;BMP280;74095;48.270;14.200;2024-02-26T11:03:09;96540.50;;;8.93
81177;BMP280;74095;48.270;14.200;2024-02-26T11:05:36;96547.88;;;8.96
81177;BMP280;74095;48.270;14.200;2024-02-26T11:08:04;96535.47;;;9.00
81177;BMP280;74095;48.270;14.200;2024-02-26T11:10:31;96542.81;;;9.03
81177;BMP280;74095;48.270;14.200;2024-02-26T11:12:59;96548.91;;;9.12
81177;BMP280;74095;48.270;14.200;2024-02-26T11:15:25;96548.72;;;9.17
81177;BMP280;74095;48.270;14.200;2024-02-26T11:17:52;96539.66;;;9.18
81177;BMP280;74095;48.270;14.200;2024-02-26T11:20:19;96544.16;;;9.35
81177;BMP280;74095;48.270;14.200;2024-02-26T11:22:45;96518.66;;;9.26
81177;BMP280;74095;48.270;14.200;2024-02-26T11:25:11;96539.53;;;9.53
81177;BMP280;74095;48.270;14.200;2024-02-26T11:27:48;96543.91;;;9.57
81177;BMP280;74095;48.270;14.200;2024-02-26T11:30:15;96534.91;;;9.41
81177;BMP280;74095;48.270;14.200;2024-02-26T11:32:46;96524.72;;;9.64
81177;BMP280;74095;48.270;14.200;2024-02-26T11:35:13;96530.13;;;9.85
81177;BMP280;74095;48.270;14.200;2024-02-26T11:37:41;96531.41;;;9.79
81177;BMP280;74095;48.270;14.200;2024-02-26T11:40:11;96538.19;;;9.97
81177;BMP280;74095;48.270;14.200;2024-02-26T11:42:43;96535.56;;;9.59
81177;BMP280;74095;48.270;14.200;2024-02-26T11:48:15;96534.63;;;9.63
81177;BMP280;74095;48.270;14.200;2024-02-26T11:50:46;96538.56;;;9.87
81177;BMP280;74095;48.270;14.200;2024-02-26T11:53:30;96521.31;;;10.13
81177;BMP280;74095;48.270;14.200;2024-02-26T11:58:48;96523.50;;;10.32
81177;BMP280;74095;48.270;14.200;2024-02-26T12:01:44;96518.47;;;10.18
81177;BMP280;74095;48.270;14.200;2024-02-26T12:04:16;96511.16;;;10.28
81177;BMP280;74095;48.270;14.200;2024-02-26T12:06:45;96521.69;;;10.45
81177;BMP280;74095;48.270;14.200;2024-02-26T12:09:11;96506.47;;;10.45
81177;BMP280;74095;48.270;14.200;2024-02-26T12:11:39;96505.69;;;10.45
81177;BMP280;74095;48.270;14.200;2024-02-26T12:14:07;96516.56;;;10.52
81177;BMP280;74095;48.270;14.200;2024-02-26T12:16:40;96512.41;;;10.63
81177;BMP280;74095;48.270;14.200;2024-02-26T12:19:09;96515.16;;;10.54
81177;BMP280;74095;48.270;14.200;2024-02-26T12:21:36;96507.50;;;10.32
81177;BMP280;74095;48.270;14.200;2024-02-26T12:24:13;96512.84;;;9.91
81177;BMP280;74095;48.270;14.200;2024-02-26T12:26:40;96506.19;;;9.76
81177;BMP280;74095;48.270;14.200;2024-02-26T12:29:06;96513.38;;;10.05
81177;BMP280;74095;48.270;14.200;2024-02-26T12:31:33;96518.41;;;9.98
81177;BMP280;74095;48.270;14.200;2024-02-26T12:34:00;96514.88;;;10.14
81177;BMP280;74095;48.270;14.200;2024-02-26T12:36:26;96514.28;;;10.09
81177;BMP280;74095;48.270;14.200;2024-02-26T12:38:52;96503.09;;;10.15
81177;BMP280;74095;48.270;14.200;2024-02-26T12:41:18;96505.88;;;9.98
81177;BMP280;74095;48.270;14.200;2024-02-26T12:43:44;96519.59;;;9.88
81177;BMP280;74095;48.270;14.200;2024-02-26T12:46:10;96522.63;;;9.49
81177;BMP280;74095;48.270;14.200;2024-02-26T12:48:36;96521.47;;;9.58
81177;BMP280;74095;48.270;14.200;2024-02-26T12:51:03;96520.50;;;9.71
81177;BMP280;74095;48.270;14.200;2024-02-26T12:53:30;96527.97;;;9.78
81177;BMP280;74095;48.270;14.200;2024-02-26T12:55:56;96526.88;;;9.79
81177;BMP280;74095;48.270;14.200;2024-02-26T12:58:22;96527.06;;;10.15
81177;BMP280;74095;48.270;14.200;2024-02-26T13:00:53;96522.88;;;10.35
81177;BMP280;74095;48.270;14.200;2024-02-26T13:03:21;96522.16;;;10.59
81177;BMP280;74095;48.270;14.200;2024-02-26T13:05:49;96526.25;;;10.44
81177;BMP280;74095;48.270;14.200;2024-02-26T13:08:22;96504.50;;;10.54
81177;BMP280;74095;48.270;14.200;2024-02-26T13:10:48;96511.56;;;10.71
81177;BMP280;74095;48.270;14.200;2024-02-26T13:13:16;96510.72;;;10.79
81177;BMP280;74095;48.270;14.200;2024-02-26T13:15:46;96510.84;;;11.07
81177;BMP280;74095;48.270;14.200;2024-02-26T13:18:14;96513.38;;;10.91
81177;BMP280;74095;48.270;14.200;2024-02-26T13:20:41;96508.03;;;10.79
81177;BMP280;74095;48.270;14.200;2024-02-26T13:23:10;96496.34;;;10.84
81177;BMP280;74095;48.270;14.200;2024-02-26T13:25:37;96504.00;;;10.85
81177;BMP280;74095;48.270;14.200;2024-02-26T13:28:14;96518.16;;;10.86
81177;BMP280;74095;48.270;14.200;2024-02-26T13:30:41;96512.28;;;11.04
81177;BMP280;74095;48.270;14.200;2024-02-26T13:33:11;96516.06;;;11.03
81177;BMP280;74095;48.270;14.200;2024-02-26T13:35:37;96513.00;;;10.81
81177;BMP280;74095;48.270;14.200;2024-02-26T13:38:05;96511.03;;;10.77
81177;BMP280;74095;48.270;14.200;2024-02-26T13:40:34;96521.59;;;10.86
81177;BMP280;74095;48.270;14.200;2024-02-26T13:43:00;96521.16;;;10.96
81177;BMP280;74095;48.270;14.200;2024-02-26T13:45:26;96513.16;;;10.84
81177;BMP280;74095;48.270;14.200;2024-02-26T13:47:53;96508.28;;;10.98
81177;BMP280;74095;48.270;14.200;2024-02-26T13:50:19;96514.28;;;11.07
81177;BMP280;74095;48.270;14.200;2024-02-26T13:52:47;96520.31;;;11.16
81177;BMP280;74095;48.270;14.200;2024-02-26T13:55:18;96513.53;;;10.95
81177;BMP280;74095;48.270;14.200;2024-02-26T13:57:45;96530.91;;;10.80
81177;BMP280;74095;48.270;14.200;2024-02-26T14:00:11;96528.94;;;10.56
81177;BMP280;74095;48.270;14.200;2024-02-26T14:02:38;96518.00;;;10.70
81177;BMP280;74095;48.270;14.200;2024-02-26T14:05:04;96527.38;;;10.88
81177;BMP280;74095;48.270;14.200;2024-02-26T14:07:30;96538.66;;;11.06
81177;BMP280;74095;48.270;14.200;2024-02-26T14:09:58;96534.09;;;11.06